Excelsior Springs, MO

3:40 PM CDT on September 23, 2019 (GMT -0500)
Wornall Estates | | Change Station
Active Advisory: Flood Warning

Elev 928 ft 39.35 °N, 94.25 °W | Updated 22 seconds ago

Clear
Clear
81.1 °F
Feels Like 83 °F
N
0.2
Wind Variable Wind from SW
Gusts 1.1 mph

Today
High -- | Low -- °F
--% Chance of Precip.
Yesterday
High -- | Low -- °F
Precip. -- in
Pressure 30.07 in
Visibility -9999.0 miles
Clouds Clear
Heat Index 83 °F
Dew Point 65 °F
Humidity 57%
Rainfall 0.00 in
Snow Depth Not available.
7:05 AM 7:12 PM
Waning Crescent, 31% visible
METAR KGPH 232055Z AUTO 00000KT CLR 26/15 A3007 RMK AO2 PWINO
Pressure 30.07 in
Visibility -9999.0 miles
Clouds Clear
Heat Index 83 °F
Dew Point 65 °F
Humidity 57%
Rainfall 0.00 in
Snow Depth Not available.
7:05 AM 7:12 PM
Waning Crescent, 31% visible
METAR KGPH 232055Z AUTO 00000KT CLR 26/15 A3007 RMK AO2 PWINO

Get Your Daily Forecast Email!

Thanks for signing up!

Be on the lookout for a verification email in your inbox.

You'll start receiving severe weather alerts in your inbox..

×

10-Day Weather Forecast

Almanac

Astronomy

Sep. 23, 2019 Rise Set
Actual Time
Civil Twilight
Nautical Twilight
Astronomical Twilight
Moon
Length of Visible Light
Length of Day
Tomorrow will be .
, % of the Moon is Illuminated

Today's Extremes

State Highs State Lows

Community

WunderPhotos

Category 6

Welcome to Category 6. This is the collective home for Weather Underground's featured writeups by Dr. Jeff Masters (right), Bob Henson (left), Chris Burt, and other regular contributors.

Nearby

Air Quality

  Air Quality AQ Index Pollutant
Not available.

Snow Depth

Station Depth Elevation

Earthquake Activity

City Distance Mag. Time & Date
Minimum magnitude displayed is 2.5.

Coastal Water Temperatures

Place Temperature

Stations

Nearby Weather Stations

Station Location Temp. Windchill Dew Point Humidity Wind Precip. Elev Updated Type
                   

Watches & Warnings

Flood Warning
Issued: 10:07 AM CDT Sep. 23, 2019 – National Weather Service

The Flood Warning continues for
the Missouri River at Sibley.
* Until Monday September 30.
* At 7:34 am Monday the stage was 23.5 feet.
* Flood stage is 22.0 feet.
* Minor flooding is occurring and minor flooding is forecast.
* Forecast... the river will rise to near 23.8 feet by
early Wednesday morning. The river will fall below flood stage
Sunday morning.
* At 22.0 feet... low-lying rural areas along the river and outside of
levee protection flood.

                       Latest
location fs stage day/time forecast

Missouri River
Sibley 22 23.5 Mon 08 am 23.8 Wednesday morning


lat... Lon 3925 9431 3922 9417 3916 9415 3918 9420 3918 9432